Terminal Aerodrome Forecast
Issued by NWS

Home | Current Version | Previous Version | Graphics & Text | Print | Product List | Glossary On
Versions: 1 2 3 4 5 6 7 8 9 10 11 12 13 14 15 16 17 18 19 20 21 22 23
000
FTUS43 KGRB 230330 AAA
TAFAUW
TAF AMD
KAUW 230330Z 2304/2324 21004KT P6SM SKC
      TEMPO 2304/2308 1SM BR BKN004
     FM230800 17004KT 5SM BR SCT250
      TEMPO 2309/2313 2SM BR
     FM231300 20007KT P6SM BKN120 BKN250
     FM231900 27006KT P6SM SCT020 BKN090 PROB30 2320/2324 -SHRA
      BKN020=

USA.gov is the U.S. government's official web portal to all federal, state and local government web resources and services.